This is the latest recevied weather packets stored in our database for station/object W4FXD. If no packets are shown the sender has not sent any weather packets the latest 1 day(s).
| Time | Temp. | Humidity | Pressure | Rain* | Wind** | Luminosity | Snow |
|---|---|---|---|---|---|---|---|
| 1778051771 | 21.11° C | 60% | 1010.3 hPa | 0 mm | - | 0 W/m² | - |
| 1778051165 | 21.11° C | 61% | 1010.4 hPa | 0 mm | - | 0 W/m² | - |
| 1778050561 | 20.56° C | 61% | 1010.4 hPa | 0 mm | - | 0 W/m² | - |
| 1778048742 | 19.44° C | 66% | 1010.6 hPa | 0 mm | - | 0 W/m² | - |
| 1778048135 | 18.89° C | 66% | 1011 hPa | 0 mm | - | 0 W/m² | - |
| 1778047833 | 18.89° C | 66% | 1011.1 hPa | 0 mm | - | 0 W/m² | - |
| 1778046319 | 18.33° C | 68% | 1011.7 hPa | 0 mm | - | 0 W/m² | - |
| 1778045713 | 17.78° C | 71% | 1011.3 hPa | 0 mm | - | 0 W/m² | - |
| 1778045411 | 18.33° C | 71% | 1011.7 hPa | 0 mm | - | 0 W/m² | - |
| 1778044200 | 20° C | 56% | 1011.4 hPa | 0 mm | - | 0 W/m² | - |
| 1778043898 | 20° C | 57% | 1011.4 hPa | 0 mm | - | 0 W/m² | - |
| 1778043595 | 20° C | 57% | 1011.6 hPa | 0 mm | - | 0 W/m² | - |
| 1778042988 | 20° C | 57% | 1011.6 hPa | 0 mm | - | 0 W/m² | - |
| 1778042686 | 20° C | 58% | 1011.3 hPa | 0 mm | - | 0 W/m² | - |
| 1778042383 | 20° C | 57% | 1011.6 hPa | 0 mm | - | 0 W/m² | - |
| 1778042080 | 20° C | 57% | 1011.5 hPa | 0 mm | - | 0 W/m² | - |
| 1778041477 | 20° C | 58% | 1011.4 hPa | 0 mm | - | 0 W/m² | - |
| 1778041175 | 20° C | 58% | 1011.6 hPa | 0 mm | - | 0 W/m² | - |
| 1778040872 | 20° C | 59% | 1011.5 hPa | 0 mm | - | 0 W/m² | - |
| 1778040569 | 20° C | 59% | 1011.6 hPa | 0 mm | - | 0 W/m² | - |
| 1778040267 | 20° C | 59% | 1011.7 hPa | 0 mm | - | 0 W/m² | - |
| 1778039660 | 20° C | 58% | 1011.6 hPa | 0 mm | - | 0 W/m² | - |
| 1778039357 | 20° C | 59% | 1011.4 hPa | 0 mm | - | 0 W/m² | - |
| 1778039054 | 20.56° C | 57% | 1011.6 hPa | 0 mm | - | 0 W/m² | - |
| 1778038751 | 21.11° C | 55% | 1011.8 hPa | 0 mm | - | 0 W/m² | - |
* Rain latest hour (hover to see other rain measurements)
** Current wind speed in m/s (hover to see current wind gust speed)